sensor_id;sensor_type;location;lat;lon;timestamp;pressure;altitude;pressure_sealevel;temperature;humidity
70458;BME280;57919;56.194;95.716;2023-10-09T00:02:26;99717.72;;;1.67;82.92
70458;BME280;57919;56.194;95.716;2023-10-09T00:12:28;99742.19;;;1.77;82.98
70458;BME280;57919;56.194;95.716;2023-10-09T00:22:31;99739.31;;;1.81;83.67
70458;BME280;57919;56.194;95.716;2023-10-09T00:32:40;99745.63;;;1.99;82.95
70458;BME280;57919;56.194;95.716;2023-10-09T00:42:47;99742.56;;;2.08;83.08
70458;BME280;57919;56.194;95.716;2023-10-09T00:52:55;99738.25;;;2.24;83.57
70458;BME280;57919;56.194;95.716;2023-10-09T01:03:12;99746.06;;;2.48;82.73
70458;BME280;57919;56.194;95.716;2023-10-09T01:13:20;99752.75;;;2.94;81.62
70458;BME280;57919;56.194;95.716;2023-10-09T01:23:28;99774.78;;;3.35;80.83
70458;BME280;57919;56.194;95.716;2023-10-09T01:33:33;99766.97;;;4.81;79.42
70458;BME280;57919;56.194;95.716;2023-10-09T01:43:38;99761.56;;;5.90;76.00
70458;BME280;57919;56.194;95.716;2023-10-09T01:53:40;99759.78;;;6.33;73.75
70458;BME280;57919;56.194;95.716;2023-10-09T02:03:43;99752.97;;;6.56;74.28
70458;BME280;57919;56.194;95.716;2023-10-09T02:13:46;99759.31;;;6.55;73.44
70458;BME280;57919;56.194;95.716;2023-10-09T02:23:55;99764.69;;;6.41;75.29
70458;BME280;57919;56.194;95.716;2023-10-09T02:33:58;99750.47;;;7.62;73.01
70458;BME280;57919;56.194;95.716;2023-10-09T02:44:01;99771.75;;;7.92;71.46
70458;BME280;57919;56.194;95.716;2023-10-09T02:54:12;99786.84;;;7.28;72.02
70458;BME280;57919;56.194;95.716;2023-10-09T03:04:20;99787.25;;;7.49;72.69
70458;BME280;57919;56.194;95.716;2023-10-09T03:14:25;99789.84;;;7.90;72.38
70458;BME280;57919;56.194;95.716;2023-10-09T03:24:28;99780.44;;;8.35;71.73
70458;BME280;57919;56.194;95.716;2023-10-09T03:34:30;99783.78;;;8.77;70.13
70458;BME280;57919;56.194;95.716;2023-10-09T03:44:32;99784.69;;;9.01;69.57
70458;BME280;57919;56.194;95.716;2023-10-09T03:54:36;99787.53;;;9.95;68.17
70458;BME280;57919;56.194;95.716;2023-10-09T04:04:40;99783.28;;;10.04;67.13
70458;BME280;57919;56.194;95.716;2023-10-09T04:14:47;99778.53;;;10.19;67.15
70458;BME280;57919;56.194;95.716;2023-10-09T04:24:52;99773.44;;;10.03;67.06
70458;BME280;57919;56.194;95.716;2023-10-09T04:34:54;99780.53;;;10.28;66.49
70458;BME280;57919;56.194;95.716;2023-10-09T04:45:18;99774.94;;;10.98;64.31
70458;BME280;57919;56.194;95.716;2023-10-09T04:55:27;99770.25;;;11.98;63.08
70458;BME280;57919;56.194;95.716;2023-10-09T05:05:40;99767.00;;;13.06;60.65
70458;BME280;57919;56.194;95.716;2023-10-09T05:15:45;99752.59;;;14.04;57.58
70458;BME280;57919;56.194;95.716;2023-10-09T05:25:47;99751.97;;;14.39;55.76
70458;BME280;57919;56.194;95.716;2023-10-09T05:35:55;99738.06;;;14.89;54.06
70458;BME280;57919;56.194;95.716;2023-10-09T05:46:15;99733.09;;;15.11;53.82
70458;BME280;57919;56.194;95.716;2023-10-09T05:56:17;99718.31;;;15.14;53.34
70458;BME280;57919;56.194;95.716;2023-10-09T06:06:38;99724.25;;;15.72;52.24
70458;BME280;57919;56.194;95.716;2023-10-09T06:16:58;99717.78;;;15.91;52.70
70458;BME280;57919;56.194;95.716;2023-10-09T06:27:03;99714.97;;;16.70;49.94
70458;BME280;57919;56.194;95.716;2023-10-09T06:37:05;99693.00;;;16.88;50.39
70458;BME280;57919;56.194;95.716;2023-10-09T06:47:18;99700.81;;;17.17;50.21
70458;BME280;57919;56.194;95.716;2023-10-09T06:57:25;99698.44;;;16.80;51.07
70458;BME280;57919;56.194;95.716;2023-10-09T07:07:45;99703.75;;;17.24;50.64
70458;BME280;57919;56.194;95.716;2023-10-09T07:17:56;99692.53;;;17.51;49.86
70458;BME280;57919;56.194;95.716;2023-10-09T07:28:18;99692.44;;;17.77;49.54
70458;BME280;57919;56.194;95.716;2023-10-09T07:38:23;99697.00;;;18.50;48.49
70458;BME280;57919;56.194;95.716;2023-10-09T07:48:29;99692.72;;;18.47;48.45
70458;BME280;57919;56.194;95.716;2023-10-09T07:58:50;99684.19;;;18.34;48.81
70458;BME280;57919;56.194;95.716;2023-10-09T08:08:53;99695.00;;;17.95;50.14
70458;BME280;57919;56.194;95.716;2023-10-09T08:19:04;99686.94;;;18.42;49.29
70458;BME280;57919;56.194;95.716;2023-10-09T08:29:25;99687.59;;;18.52;48.79
70458;BME280;57919;56.194;95.716;2023-10-09T08:39:36;99674.81;;;18.04;49.50
70458;BME280;57919;56.194;95.716;2023-10-09T08:49:39;99687.28;;;17.66;50.44
70458;BME280;57919;56.194;95.716;2023-10-09T08:59:41;99681.09;;;17.56;51.96
70458;BME280;57919;56.194;95.716;2023-10-09T09:09:59;99697.06;;;18.17;50.27
70458;BME280;57919;56.194;95.716;2023-10-09T09:20:24;99714.06;;;17.46;51.11
70458;BME280;57919;56.194;95.716;2023-10-09T09:30:33;99710.44;;;16.87;52.01
70458;BME280;57919;56.194;95.716;2023-10-09T09:40:37;99716.91;;;16.86;52.13
70458;BME280;57919;56.194;95.716;2023-10-09T09:50:43;99711.56;;;16.76;52.19
70458;BME280;57919;56.194;95.716;2023-10-09T10:00:47;99718.00;;;16.41;52.88
70458;BME280;57919;56.194;95.716;2023-10-09T10:10:55;99723.53;;;15.88;53.80
70458;BME280;57919;56.194;95.716;2023-10-09T10:21:10;99718.34;;;15.32;55.72
70458;BME280;57919;56.194;95.716;2023-10-09T10:31:19;99731.28;;;15.47;55.28
70458;BME280;57919;56.194;95.716;2023-10-09T10:41:24;99733.53;;;14.79;56.44
70458;BME280;57919;56.194;95.716;2023-10-09T10:51:35;99742.84;;;14.11;57.53
70458;BME280;57919;56.194;95.716;2023-10-09T11:01:40;99753.72;;;13.63;58.18
70458;BME280;57919;56.194;95.716;2023-10-09T11:12:07;99746.19;;;13.16;58.95
70458;BME280;57919;56.194;95.716;2023-10-09T11:22:23;99763.50;;;12.85;59.66
70458;BME280;57919;56.194;95.716;2023-10-09T11:32:31;99769.09;;;12.63;60.12
70458;BME280;57919;56.194;95.716;2023-10-09T11:42:41;99765.09;;;12.36;60.86
70458;BME280;57919;56.194;95.716;2023-10-09T11:52:57;99780.31;;;12.27;61.07
70458;BME280;57919;56.194;95.716;2023-10-09T12:03:21;99785.00;;;12.25;61.53
70458;BME280;57919;56.194;95.716;2023-10-09T12:13:25;99785.75;;;12.27;62.03
70458;BME280;57919;56.194;95.716;2023-10-09T12:23:27;99794.22;;;12.34;61.70
70458;BME280;57919;56.194;95.716;2023-10-09T12:33:29;99800.91;;;12.30;61.96
70458;BME280;57919;56.194;95.716;2023-10-09T12:43:32;99792.94;;;12.17;62.26
70458;BME280;57919;56.194;95.716;2023-10-09T12:53:39;99789.66;;;12.14;62.64
70458;BME280;57919;56.194;95.716;2023-10-09T13:03:42;99812.41;;;12.22;62.56
70458;BME280;57919;56.194;95.716;2023-10-09T13:13:45;99820.69;;;12.21;62.80
70458;BME280;57919;56.194;95.716;2023-10-09T13:23:53;99818.81;;;12.21;63.05
70458;BME280;57919;56.194;95.716;2023-10-09T13:33:59;99836.75;;;12.34;62.64
70458;BME280;57919;56.194;95.716;2023-10-09T13:44:02;99847.16;;;12.28;63.01
70458;BME280;57919;56.194;95.716;2023-10-09T13:54:04;99855.56;;;12.25;62.90
70458;BME280;57919;56.194;95.716;2023-10-09T14:04:08;99860.84;;;12.27;63.18
70458;BME280;57919;56.194;95.716;2023-10-09T14:14:10;99875.13;;;12.29;63.18
70458;BME280;57919;56.194;95.716;2023-10-09T14:24:13;99878.63;;;12.20;63.32
70458;BME280;57919;56.194;95.716;2023-10-09T14:34:20;99897.69;;;11.98;63.92
70458;BME280;57919;56.194;95.716;2023-10-09T14:44:24;99900.44;;;11.86;64.26
70458;BME280;57919;56.194;95.716;2023-10-09T14:54:29;99912.75;;;11.90;64.14
70458;BME280;57919;56.194;95.716;2023-10-09T15:04:31;99919.88;;;11.91;64.35
70458;BME280;57919;56.194;95.716;2023-10-09T15:14:37;99915.84;;;11.86;64.91
70458;BME280;57919;56.194;95.716;2023-10-09T15:24:40;99907.31;;;11.90;66.22
70458;BME280;57919;56.194;95.716;2023-10-09T15:34:42;99909.28;;;11.88;67.28
70458;BME280;57919;56.194;95.716;2023-10-09T15:44:45;99914.59;;;11.68;67.51
70458;BME280;57919;56.194;95.716;2023-10-09T15:54:49;99913.38;;;11.38;67.96
70458;BME280;57919;56.194;95.716;2023-10-09T16:04:51;99926.16;;;11.03;68.62
70458;BME280;57919;56.194;95.716;2023-10-09T16:14:54;99932.59;;;10.66;69.10
70458;BME280;57919;56.194;95.716;2023-10-09T16:24:59;99936.22;;;10.43;69.79
70458;BME280;57919;56.194;95.716;2023-10-09T16:35:01;99942.50;;;10.20;70.27
70458;BME280;57919;56.194;95.716;2023-10-09T16:45:05;99942.97;;;10.01;70.64
70458;BME280;57919;56.194;95.716;2023-10-09T16:55:10;99947.16;;;9.81;70.74
70458;BME280;57919;56.194;95.716;2023-10-09T17:05:13;99950.78;;;9.56;71.79
70458;BME280;57919;56.194;95.716;2023-10-09T17:15:15;99947.88;;;9.47;72.05
70458;BME280;57919;56.194;95.716;2023-10-09T17:25:16;99961.50;;;9.32;72.69
70458;BME280;57919;56.194;95.716;2023-10-09T17:35:20;99974.16;;;9.19;72.49
70458;BME280;57919;56.194;95.716;2023-10-09T17:45:22;99974.78;;;8.97;72.55
70458;BME280;57919;56.194;95.716;2023-10-09T17:55:24;99969.78;;;8.79;73.25
70458;BME280;57919;56.194;95.716;2023-10-09T18:05:27;99989.31;;;8.69;73.30
70458;BME280;57919;56.194;95.716;2023-10-09T18:15:31;99984.50;;;8.48;73.81
70458;BME280;57919;56.194;95.716;2023-10-09T18:25:36;99987.25;;;8.33;74.22
70458;BME280;57919;56.194;95.716;2023-10-09T18:35:39;100002.38;;;8.36;74.89
70458;BME280;57919;56.194;95.716;2023-10-09T18:45:42;100008.91;;;8.32;74.70
70458;BME280;57919;56.194;95.716;2023-10-09T18:55:44;99995.88;;;8.12;74.94
70458;BME280;57919;56.194;95.716;2023-10-09T19:05:46;100014.28;;;8.05;75.36
70458;BME280;57919;56.194;95.716;2023-10-09T19:15:49;100013.34;;;7.92;75.70
70458;BME280;57919;56.194;95.716;2023-10-09T19:25:51;100013.25;;;7.79;76.29
70458;BME280;57919;56.194;95.716;2023-10-09T19:36:01;100013.66;;;7.73;76.61
70458;BME280;57919;56.194;95.716;2023-10-09T19:46:06;100003.84;;;7.58;77.17
70458;BME280;57919;56.194;95.716;2023-10-09T19:56:09;100023.09;;;7.52;77.00
70458;BME280;57919;56.194;95.716;2023-10-09T20:06:12;100021.94;;;7.41;77.71
70458;BME280;57919;56.194;95.716;2023-10-09T20:16:17;100007.13;;;7.34;77.50
70458;BME280;57919;56.194;95.716;2023-10-09T20:26:18;100022.50;;;7.32;77.72
70458;BME280;57919;56.194;95.716;2023-10-09T20:36:21;100012.59;;;7.19;78.20
70458;BME280;57919;56.194;95.716;2023-10-09T20:46:29;100028.06;;;7.15;78.77
70458;BME280;57919;56.194;95.716;2023-10-09T20:56:31;100021.41;;;7.06;81.42
70458;BME280;57919;56.194;95.716;2023-10-09T21:06:33;100023.47;;;7.31;81.25
70458;BME280;57919;56.194;95.716;2023-10-09T21:16:35;100023.09;;;7.52;80.32
70458;BME280;57919;56.194;95.716;2023-10-09T21:26:37;100029.13;;;7.69;80.50
70458;BME280;57919;56.194;95.716;2023-10-09T21:36:39;100037.69;;;7.62;80.66
70458;BME280;57919;56.194;95.716;2023-10-09T21:46:42;100040.31;;;7.63;80.97
70458;BME280;57919;56.194;95.716;2023-10-09T21:56:44;100044.72;;;7.78;81.61
70458;BME280;57919;56.194;95.716;2023-10-09T22:06:46;100041.25;;;7.91;81.67
70458;BME280;57919;56.194;95.716;2023-10-09T22:16:48;100048.94;;;7.97;82.10
70458;BME280;57919;56.194;95.716;2023-10-09T22:26:49;100052.38;;;8.13;82.78
70458;BME280;57919;56.194;95.716;2023-10-09T22:36:52;100060.50;;;8.26;82.93
70458;BME280;57919;56.194;95.716;2023-10-09T22:46:55;100039.34;;;8.34;82.72
70458;BME280;57919;56.194;95.716;2023-10-09T22:56:57;100038.94;;;8.40;82.80
70458;BME280;57919;56.194;95.716;2023-10-09T23:06:59;100033.66;;;8.38;83.72
70458;BME280;57919;56.194;95.716;2023-10-09T23:17:06;100036.25;;;8.40;83.52
70458;BME280;57919;56.194;95.716;2023-10-09T23:27:24;100044.50;;;8.51;83.36
70458;BME280;57919;56.194;95.716;2023-10-09T23:37:39;100038.03;;;8.54;83.50
70458;BME280;57919;56.194;95.716;2023-10-09T23:47:45;100052.72;;;8.62;83.19
70458;BME280;57919;56.194;95.716;2023-10-09T23:57:48;100055.00;;;8.68;83.10
